Record high temperature 100.8°F Record low temperature -75.5°F Record high gust 121.0 mph Record high average 61.8 mph Record daily rain 2.61 in. Record low windchill -106.6°F Record high barometer 31.889 in. Record low barometer 23.642 in.
Daily high pressure 30.332 in. Daily low pressure 30.284 in. Daily low windchill 46.6°F Daily high heat index 57.3°F Daily high gust speed 6.5 mph SW Daily high average speed 4.8 mph SSW
Weather Data
LAST READING AT TIME: 10:40 AM DATE: May 30 2015, time of next update: 10:50 am
Current WeatherDry Current Temperature 57.0°F (13.9°C), Apparent temp 57.1°F
Maximum Temperature (since midnight)57.3°F at: 10:33 AM Minimum Temperature (since midnight)46.6°F at: 4:25 AM
Average windspeed (ten minute)1.7 mph Wind Direction (ten minute)SSW (208°)
Windchill Temperature 57.0°F Maximum Gust (last hour)6.5 mph at: 10:31 AM
Maximum Gust (since midnight)6.5 mph at: 10:31 AM Maximum 1 minute average (since midnight)4.8 mph at: 10:32 AM
Rainfall (last hour)0.00 in. (0.0 mm) Rainfall (since midnight)0.00 in. (0.0 mm) ---
Rainfall This month 6.03 in. (153.2 mm) Rainfall To date this year 9.06 in. (230.2 mm)
Maximum rain per minute (last hour)0.00 in/min Maximum rain per hour (last 6 hours)0.00 in/hour
Yesterdays rainfall 0.11 in DewPoint 48.4°F (Wet Bulb :52.6°F )
Humidity 73 %, Humidex 58.6°F Barometer corrected to msl30.296 in. (1026.0 hPa)
Pressure change -0.01 in. (last hour) Trend (last hour)STEADY
Pressure change (last 12 hours)+0.02 in Pressure change (last 6 hours)-0.01 in

This page is updated from recent data collected by a DAVIS WMII weather station Use the Reload or Refresh facility on your browser to retrieve the latest data.


Click here for the last 24 hour graph
Click here for the last 48 hour graph
Click here for the last 72 hour graph
Click here for the month to date graph


Weather report/warning/Metars

COLORADO SPRINGS MUNI, CO, United States (KCOS) 38-49N 104-43W 1856M
May 30, 2015 - 12:11 PM EDT / 2015.05.30 1611 UTC
Wind: Variable at 5 MPH (4 KT):0
Visibility: 9 mile(s):0
Sky conditions: overcast
Temperature: 54.0 F (12.2 C)
Dew Point: 46.0 F (7.8 C)
Relative Humidity: 74%
Pressure (altimeter): 30.33 in. Hg (1027 hPa)
ob: KCOS 301611Z VRB04KT 9SM BKN016 OVC020 12/08 A3033 RMK AO2 T01220078
cycle: 16
Air Force Academy, CO, United States (KAFF) 38-58N 104-49W 1999M
May 30, 2015 - 11:58 AM EDT / 2015.05.30 1558 UTC
Wind: from the S (190 degrees) at 6 MPH (5 KT):0
Visibility: 10 mile(s):0
Sky conditions: overcast
Temperature: 49.8 F (9.9 C)
Dew Point: 44.6 F (7.0 C)
Relative Humidity: 82%
Pressure (altimeter): 30.33 in. Hg (1027 hPa)
ob: KAFF 301558Z AUTO 19005KT 10SM OVC010 10/07 A3033 RMK AO2 SLP233 T00990070
cycle: 16
Fort Carson, CO, United States (KFCS) 38-42N 104-46W 1789M
May 30, 2015 - 11:58 AM EDT / 2015.05.30 1558 UTC
Wind: Variable at 1 MPH (1 KT):0
Visibility: 10 mile(s):0
Sky conditions: mostly cloudy
Temperature: 53.1 F (11.7 C)
Dew Point: 46.6 F (8.1 C)
Relative Humidity: 78%
Pressure (altimeter): 30.32 in. Hg (1026 hPa)
ob: KFCS 301558Z VRB01KT 10SM BKN018 12/08 A3032 RMK AO2A SLP253 T01170081 
cycle: 16



The data is logged at two minute intervals, but there is data recorded every minute. Best viewed in 800 x 600 and True colour.

Use the RELOAD facility on your browser to retrieve the latest data.

Click here for a daily update of the averages/extremes to date for the month
Created by "Weather Display" software version 10.37R Build 78 at this start time/date 03:03 pm 5/23/2015